Time;durP1;ratioP1;P1;durP2;ratioP2;P2;SDS_P1;SDS_P2;PMS_P1;PMS_P2;Temp;Humidity;BMP_temperature;BMP_pressure;BME280_temperature;BME280_humidity;BME280_pressure;Samples;Min_cycle;Max_cycle;Signal;HPM_P1;HPM_P2
2022/03/29 00:00:50;;;;;;;0.10;0.10;;;12.40;57.40;;;;;;4992722;28;20026;-66
2022/03/29 00:03:16;;;;;;;0.10;0.10;;;12.30;57.70;;;;;;4993147;28;20030;-66
2022/03/29 00:05:42;;;;;;;3.22;2.92;;;12.40;57.90;;;;;;5045795;22;20051;-64
2022/03/29 00:08:07;;;;;;;0.10;0.10;;;12.30;57.40;;;;;;5050189;28;20466;-64
2022/03/29 00:10:33;;;;;;;0.10;0.10;;;12.30;57.50;;;;;;5036412;28;20745;-64
2022/03/29 00:12:59;;;;;;;0.13;0.13;;;12.30;57.20;;;;;;5043228;28;20021;-64
2022/03/29 00:15:25;;;;;;;0.10;0.10;;;12.30;57.00;;;;;;5030769;28;20118;-64
2022/03/29 00:17:50;;;;;;;0.32;0.32;;;12.20;58.00;;;;;;5032099;28;20026;-65
2022/03/29 00:20:18;;;;;;;1.20;1.00;;;12.30;58.30;;;;;;5031668;28;20061;-63
2022/03/29 00:22:46;;;;;;;0.57;0.57;;;12.20;58.40;;;;;;5032139;28;20041;-65
2022/03/29 00:25:12;;;;;;;0.10;0.10;;;12.20;58.60;;;;;;5032203;28;20091;-64
2022/03/29 00:27:38;;;;;;;4.47;3.90;;;12.20;58.70;;;;;;5043776;28;20029;-64
2022/03/29 00:30:09;;;;;;;1.95;1.85;;;12.20;58.60;;;;;;5051027;28;20032;-64
2022/03/29 00:32:35;;;;;;;0.10;0.10;;;12.10;58.80;;;;;;5051741;28;20025;-64
2022/03/29 00:35:04;;;;;;;0.25;0.25;;;12.00;58.60;;;;;;5051828;28;20025;-64
2022/03/29 00:37:29;;;;;;;0.20;0.20;;;12.00;58.80;;;;;;5046353;28;20028;-64
2022/03/29 00:39:55;;;;;;;0.25;0.25;;;12.00;59.10;;;;;;5031492;28;20026;-64
2022/03/29 00:42:21;;;;;;;0.10;0.10;;;11.90;59.30;;;;;;5032064;28;20030;-63
2022/03/29 00:44:47;;;;;;;0.10;0.10;;;11.80;59.40;;;;;;5041393;28;20033;-65
2022/03/29 00:47:13;;;;;;;0.10;0.10;;;11.80;59.90;;;;;;5050101;28;20033;-64
2022/03/29 00:49:38;;;;;;;0.10;0.10;;;11.80;60.00;;;;;;5051508;28;20116;-65
2022/03/29 00:52:05;;;;;;;0.10;0.10;;;11.70;60.20;;;;;;5049518;28;20484;-63
2022/03/29 00:54:34;;;;;;;0.10;0.10;;;11.70;60.40;;;;;;5042933;28;20033;-63
2022/03/29 00:57:02;;;;;;;0.20;0.20;;;11.70;60.10;;;;;;5041475;28;20038;-63
2022/03/29 00:59:28;;;;;;;0.10;0.10;;;11.70;60.50;;;;;;5043268;28;20029;-64
2022/03/29 01:01:57;;;;;;;0.13;0.13;;;11.70;60.90;;;;;;5044047;28;20036;-63
2022/03/29 01:04:23;;;;;;;0.10;0.10;;;11.70;61.20;;;;;;5042948;28;20040;-63
2022/03/29 01:06:49;;;;;;;0.15;0.15;;;11.70;61.40;;;;;;5041696;28;20029;-63
2022/03/29 01:09:15;;;;;;;0.10;0.10;;;11.60;61.60;;;;;;5046323;28;20028;-64
2022/03/29 01:11:41;;;;;;;0.40;0.40;;;11.60;62.00;;;;;;5042114;28;20032;-64
2022/03/29 01:14:06;;;;;;;0.10;0.10;;;11.60;62.10;;;;;;5041742;28;20052;-64
2022/03/29 01:19:20;;;;;;;0.10;0.10;;;11.60;62.70;;;;;;5058450;28;20170;-64
2022/03/29 01:22:09;;;;;;;1.00;1.00;;;11.60;63.10;;;;;;5042204;28;20044;-64
2022/03/29 01:24:46;;;;;;;0.10;0.10;;;11.60;63.50;;;;;;5037666;28;20021;-64
2022/03/29 01:27:12;;;;;;;0.10;0.10;;;11.60;64.00;;;;;;5037789;28;20021;-64
2022/03/29 01:29:39;;;;;;;0.57;0.57;;;11.60;64.60;;;;;;5045016;28;20071;-64
2022/03/29 01:32:08;;;;;;;0.10;0.10;;;11.60;64.10;;;;;;5041646;28;20021;-64
2022/03/29 01:34:41;;;;;;;0.10;0.10;;;11.60;64.90;;;;;;5036443;28;20160;-64
2022/03/29 01:37:07;;;;;;;1.75;1.65;;;11.50;66.40;;;;;;5038202;28;20025;-64
2022/03/29 01:39:34;;;;;;;1.20;1.20;;;11.50;66.50;;;;;;5040109;28;20029;-64
2022/03/29 01:42:01;;;;;;;0.20;0.20;;;11.50;67.60;;;;;;5042013;28;20478;-64
2022/03/29 01:44:27;;;;;;;0.35;0.25;;;11.50;67.50;;;;;;5037617;28;20033;-64
2022/03/29 01:46:53;;;;;;;0.10;0.10;;;11.40;68.20;;;;;;5042869;28;20025;-64
2022/03/29 01:49:19;;;;;;;0.55;0.55;;;11.40;69.30;;;;;;5039054;28;20025;-64
2022/03/29 01:51:45;;;;;;;0.10;0.10;;;11.30;69.80;;;;;;5042756;28;20040;-64
2022/03/29 01:54:11;;;;;;;0.10;0.10;;;11.30;70.50;;;;;;5043740;28;20049;-65
2022/03/29 01:56:37;;;;;;;0.10;0.10;;;11.40;71.10;;;;;;5041107;28;20060;-64
2022/03/29 01:59:08;;;;;;;0.10;0.10;;;11.40;72.20;;;;;;5037714;28;20032;-65
2022/03/29 02:01:41;;;;;;;0.10;0.10;;;11.40;72.70;;;;;;5042101;28;20058;-65
2022/03/29 02:04:09;;;;;;;0.10;0.10;;;11.40;73.20;;;;;;5040453;28;20033;-65
2022/03/29 02:06:35;;;;;;;0.10;0.10;;;11.40;73.40;;;;;;5041330;28;20061;-63
2022/03/29 02:09:02;;;;;;;0.63;0.63;;;11.40;73.80;;;;;;5039839;28;20067;-64
2022/03/29 02:11:27;;;;;;;0.10;0.10;;;11.50;75.20;;;;;;5048360;28;20033;-64
2022/03/29 02:13:54;;;;;;;0.38;0.38;;;11.50;75.20;;;;;;5047892;28;20021;-64
2022/03/29 02:16:19;;;;;;;2.60;2.28;;;11.40;75.50;;;;;;5048017;28;20021;-64
2022/03/29 02:18:45;;;;;;;0.20;0.20;;;11.50;75.70;;;;;;5040703;28;20036;-64
2022/03/29 02:21:14;;;;;;;0.38;0.38;;;11.40;76.30;;;;;;5046707;28;20040;-64
2022/03/29 02:23:40;;;;;;;2.72;2.55;;;11.40;77.00;;;;;;5042663;28;20025;-63
2022/03/29 02:26:06;;;;;;;0.10;0.10;;;11.30;77.00;;;;;;5038370;28;20086;-64
2022/03/29 02:28:32;;;;;;;0.10;0.10;;;11.40;78.00;;;;;;5039739;28;20347;-64
2022/03/29 02:30:57;;;;;;;0.60;0.60;;;11.40;78.20;;;;;;5037012;28;20041;-63
2022/03/29 02:33:23;;;;;;;0.65;0.65;;;11.30;78.80;;;;;;5041728;28;20058;-64
2022/03/29 02:35:49;;;;;;;0.22;0.22;;;11.30;79.80;;;;;;5040187;28;20104;-63
2022/03/29 02:38:17;;;;;;;0.22;0.22;;;11.30;80.10;;;;;;5038514;28;20021;-63
2022/03/29 02:40:44;;;;;;;0.55;0.55;;;11.20;80.50;;;;;;5044024;28;21879;-64
2022/03/29 02:43:09;;;;;;;0.90;0.90;;;11.20;80.60;;;;;;5039153;28;20031;-63
2022/03/29 02:45:35;;;;;;;1.02;1.02;;;10.90;82.20;;;;;;5040221;28;20033;-63
2022/03/29 02:48:01;;;;;;;0.10;0.10;;;10.90;83.10;;;;;;5039831;28;20481;-63
2022/03/29 02:50:27;;;;;;;0.43;0.43;;;10.80;83.60;;;;;;5040829;28;20064;-63
2022/03/29 02:52:55;;;;;;;0.10;0.10;;;10.80;83.90;;;;;;5040888;28;20100;-62
2022/03/29 02:55:24;;;;;;;0.10;0.10;;;10.80;84.20;;;;;;5037187;28;20045;-63
2022/03/29 02:57:50;;;;;;;0.43;0.43;;;10.70;84.10;;;;;;5042557;28;20031;-63
2022/03/29 03:00:17;;;;;;;0.90;0.90;;;10.80;83.20;;;;;;5043907;28;20107;-63
2022/03/29 03:02:44;;;;;;;2.10;1.90;;;10.80;83.80;;;;;;5044678;28;20044;-63
2022/03/29 03:05:10;;;;;;;0.40;0.40;;;10.70;84.50;;;;;;5044898;28;20058;-63
2022/03/29 03:07:40;;;;;;;0.10;0.10;;;10.50;85.60;;;;;;5043697;28;20033;-63
2022/03/29 03:10:07;;;;;;;0.10;0.10;;;10.50;86.40;;;;;;5034627;28;20052;-63
2022/03/29 03:12:44;;;;;;;0.20;0.20;;;10.60;86.00;;;;;;5047513;28;20035;-63
2022/03/29 03:15:12;;;;;;;0.55;0.55;;;10.60;86.30;;;;;;5044423;28;20033;-63
2022/03/29 03:17:38;;;;;;;0.10;0.10;;;10.50;86.70;;;;;;5041044;28;20431;-65
2022/03/29 03:20:05;;;;;;;0.65;0.65;;;10.50;86.80;;;;;;5042164;28;20036;-64
2022/03/29 03:22:32;;;;;;;1.70;1.60;;;10.50;87.10;;;;;;5051002;28;20032;-65
2022/03/29 03:24:57;;;;;;;0.10;0.10;;;10.50;86.90;;;;;;5037363;28;20052;-63
2022/03/29 03:27:23;;;;;;;0.10;0.10;;;10.50;87.10;;;;;;5048757;28;20056;-64
2022/03/29 03:29:49;;;;;;;0.10;0.10;;;10.50;86.90;;;;;;5048202;28;20086;-64
2022/03/29 03:32:15;;;;;;;0.10;0.10;;;10.50;86.70;;;;;;5039677;28;20029;-64
2022/03/29 03:34:41;;;;;;;0.32;0.32;;;10.50;86.70;;;;;;5041968;28;20029;-64
2022/03/29 03:37:08;;;;;;;0.10;0.10;;;10.50;86.80;;;;;;5045332;28;20494;-64
2022/03/29 03:39:37;;;;;;;0.30;0.30;;;10.40;88.70;;;;;;5042114;28;20029;-64
2022/03/29 03:42:04;;;;;;;0.10;0.10;;;10.30;88.10;;;;;;5044303;28;20021;-64
2022/03/29 03:44:29;;;;;;;0.50;0.50;;;10.20;89.10;;;;;;5043671;28;20028;-64
2022/03/29 03:46:55;;;;;;;0.10;0.10;;;10.20;89.90;;;;;;5047179;28;20093;-64
2022/03/29 03:49:21;;;;;;;0.80;0.80;;;10.10;90.70;;;;;;5046799;28;20023;-64
2022/03/29 03:51:47;;;;;;;0.45;0.45;;;10.00;91.40;;;;;;5046429;28;20034;-64
2022/03/29 03:54:12;;;;;;;0.10;0.10;;;9.90;92.70;;;;;;5044968;28;20113;-64
2022/03/29 03:56:38;;;;;;;2.72;0.77;;;9.90;93.00;;;;;;5047378;28;20079;-64
2022/03/29 03:59:04;;;;;;;0.68;0.68;;;9.90;92.90;;;;;;5042450;28;20025;-64
2022/03/29 04:01:29;;;;;;;1.27;1.17;;;9.90;93.10;;;;;;5045388;28;20036;-64
2022/03/29 04:03:55;;;;;;;1.85;1.75;;;9.80;93.30;;;;;;5050939;28;20052;-64
2022/03/29 04:06:21;;;;;;;0.10;0.10;;;9.80;94.00;;;;;;5040269;28;20033;-64
2022/03/29 04:08:47;;;;;;;0.10;0.10;;;9.80;93.60;;;;;;5046826;28;20025;-64
2022/03/29 04:11:12;;;;;;;0.10;0.10;;;9.80;93.30;;;;;;5042554;28;20078;-64
2022/03/29 04:13:38;;;;;;;0.17;0.17;;;9.70;94.00;;;;;;5041125;28;20502;-64
2022/03/29 04:16:04;;;;;;;0.10;0.10;;;9.80;94.30;;;;;;5041507;28;20544;-64
2022/03/29 04:18:30;;;;;;;0.20;0.20;;;9.80;94.70;;;;;;5037649;28;20504;-64
2022/03/29 04:20:57;;;;;;;0.10;0.10;;;9.70;95.00;;;;;;5046471;28;20036;-64
2022/03/29 04:23:23;;;;;;;0.10;0.10;;;9.70;94.90;;;;;;5044311;28;20107;-64
2022/03/29 04:25:48;;;;;;;0.43;0.43;;;9.70;95.00;;;;;;5037692;28;20086;-64
2022/03/29 04:28:14;;;;;;;0.93;0.93;;;9.70;95.50;;;;;;5047341;28;20045;-64
2022/03/29 04:30:40;;;;;;;0.10;0.10;;;9.70;95.90;;;;;;5044915;28;20042;-64
2022/03/29 04:33:06;;;;;;;0.10;0.10;;;9.80;95.50;;;;;;5038440;28;20545;-64
2022/03/29 04:35:32;;;;;;;0.65;0.65;;;9.90;95.40;;;;;;5042459;28;20064;-64
2022/03/29 04:37:57;;;;;;;0.10;0.10;;;9.90;95.30;;;;;;5043836;28;20065;-64
2022/03/29 04:40:23;;;;;;;3.38;3.10;;;9.90;95.10;;;;;;5038384;28;20478;-63
2022/03/29 04:42:50;;;;;;;0.10;0.10;;;9.90;96.20;;;;;;5039743;28;20025;-63
2022/03/29 04:45:18;;;;;;;0.10;0.10;;;9.80;96.40;;;;;;5039706;28;20032;-64
2022/03/29 04:47:45;;;;;;;0.20;0.20;;;9.90;95.60;;;;;;5041332;28;20021;-64
2022/03/29 04:50:12;;;;;;;0.10;0.10;;;9.80;95.80;;;;;;5044093;28;20037;-63
2022/03/29 04:52:44;;;;;;;0.10;0.10;;;9.80;96.80;;;;;;5043735;28;20528;-63
2022/03/29 04:55:13;;;;;;;0.10;0.10;;;9.80;96.80;;;;;;5047289;28;20771;-64
2022/03/29 04:57:41;;;;;;;0.10;0.10;;;9.90;96.60;;;;;;5040548;28;20025;-65
2022/03/29 05:00:12;;;;;;;0.10;0.10;;;10.10;95.30;;;;;;5040452;28;20040;-64
2022/03/29 05:02:38;;;;;;;0.10;0.10;;;9.90;95.90;;;;;;5041773;28;20025;-64
2022/03/29 05:05:05;;;;;;;0.30;0.30;;;10.00;96.00;;;;;;5046530;28;20479;-64
2022/03/29 05:07:30;;;;;;;0.15;0.15;;;10.00;96.20;;;;;;5042506;28;20044;-63
2022/03/29 05:09:56;;;;;;;0.10;0.10;;;10.10;96.30;;;;;;5041243;28;20382;-64
2022/03/29 05:12:22;;;;;;;1.08;1.00;;;10.10;96.30;;;;;;5036843;28;20027;-64
2022/03/29 05:14:48;;;;;;;0.10;0.10;;;10.20;96.80;;;;;;5041853;28;20402;-64
2022/03/29 05:17:13;;;;;;;0.10;0.10;;;10.20;97.10;;;;;;5034604;28;20474;-64
2022/03/29 05:19:39;;;;;;;1.55;1.33;;;10.20;97.80;;;;;;5047963;28;20032;-64
2022/03/29 05:22:05;;;;;;;0.10;0.10;;;10.20;98.40;;;;;;5043175;28;20025;-65
2022/03/29 05:24:30;;;;;;;0.10;0.10;;;10.30;98.10;;;;;;5042467;28;20055;-65
2022/03/29 05:26:56;;;;;;;0.20;0.20;;;10.20;98.20;;;;;;5041411;28;20135;-65
2022/03/29 05:29:22;;;;;;;1.88;1.67;;;10.20;99.00;;;;;;5039246;28;20025;-65
2022/03/29 05:31:48;;;;;;;0.20;0.20;;;10.20;98.50;;;;;;5043291;28;20033;-65
2022/03/29 05:34:14;;;;;;;0.65;0.65;;;10.20;98.40;;;;;;5037811;28;20092;-65
2022/03/29 05:39:18;;;;;;;0.10;0.10;;;10.20;98.80;;;;;;5806768;22;20049;-78
2022/03/29 05:41:43;;;;;;;0.10;0.10;;;10.10;99.30;;;;;;5039976;28;20030;-79
2022/03/29 05:44:09;;;;;;;0.20;0.20;;;10.00;99.90;;;;;;5042821;28;20452;-77
2022/03/29 05:49:20;;;;;;;0.40;0.40;;;9.90;99.90;;;;;;5046689;28;20040;-74
2022/03/29 05:51:47;;;;;;;0.13;0.13;;;10.10;99.90;;;;;;5040597;28;20037;-74
2022/03/29 05:54:12;;;;;;;0.50;0.50;;;10.10;99.90;;;;;;5036130;28;20025;-75
2022/03/29 05:56:41;;;;;;;0.10;0.10;;;10.10;99.90;;;;;;5050042;28;20086;-75
2022/03/29 05:59:07;;;;;;;0.10;0.10;;;10.20;99.90;;;;;;5047896;28;20041;-73
2022/03/29 06:01:33;;;;;;;0.10;0.10;;;10.30;99.90;;;;;;5054273;22;20021;-72
2022/03/29 06:03:58;;;;;;;0.20;0.20;;;10.30;99.90;;;;;;5019754;28;20557;-69
2022/03/29 06:06:24;;;;;;;0.10;0.10;;;10.40;99.90;;;;;;5017106;28;20450;-71
2022/03/29 06:08:49;;;;;;;0.70;0.70;;;10.40;99.90;;;;;;5021949;28;20040;-69
2022/03/29 06:11:15;;;;;;;0.38;0.38;;;10.30;99.90;;;;;;5025615;28;20472;-68
2022/03/29 06:13:41;;;;;;;0.10;0.10;;;10.30;99.90;;;;;;5020642;28;20084;-70
2022/03/29 06:16:06;;;;;;;0.10;0.10;;;10.20;99.90;;;;;;5022813;28;20028;-70
2022/03/29 06:18:33;;;;;;;0.10;0.10;;;10.30;99.90;;;;;;5020513;28;20665;-69
2022/03/29 06:20:59;;;;;;;0.85;0.85;;;10.30;99.90;;;;;;5019018;28;20077;-70
2022/03/29 06:23:24;;;;;;;0.10;0.10;;;10.20;99.90;;;;;;5020979;28;20033;-70
2022/03/29 06:25:50;;;;;;;0.10;0.10;;;10.30;99.90;;;;;;5019294;28;20026;-70
2022/03/29 06:28:17;;;;;;;0.68;0.68;;;10.30;99.90;;;;;;5019853;28;20474;-70
2022/03/29 06:30:44;;;;;;;0.10;0.10;;;10.40;99.70;;;;;;5024552;28;20113;-70
2022/03/29 06:33:10;;;;;;;0.17;0.17;;;10.50;99.90;;;;;;5026489;28;20022;-70
2022/03/29 06:35:38;;;;;;;0.73;0.73;;;10.50;98.90;;;;;;5011038;28;20072;-69
2022/03/29 06:38:05;;;;;;;1.25;1.25;;;10.50;99.20;;;;;;5017229;28;20089;-70
2022/03/29 06:40:31;;;;;;;0.10;0.10;;;10.50;98.40;;;;;;5022337;28;20791;-71
2022/03/29 06:43:00;;;;;;;0.40;0.40;;;10.60;97.90;;;;;;5021742;28;20040;-70
2022/03/29 06:45:27;;;;;;;0.10;0.10;;;10.60;97.30;;;;;;5025624;28;20414;-71
2022/03/29 06:47:53;;;;;;;0.10;0.10;;;10.80;96.80;;;;;;5026970;28;20026;-72
2022/03/29 06:50:18;;;;;;;2.45;1.85;;;10.80;96.20;;;;;;5018374;28;20029;-70
2022/03/29 06:52:45;;;;;;;0.30;0.30;;;10.80;96.20;;;;;;5016448;28;20033;-70
2022/03/29 06:55:16;;;;;;;1.00;1.00;;;10.80;95.90;;;;;;5029258;28;20029;-69
2022/03/29 06:57:43;;;;;;;0.30;0.30;;;10.80;95.80;;;;;;5023479;28;20029;-70
2022/03/29 07:00:10;;;;;;;0.10;0.10;;;10.80;96.20;;;;;;5030052;28;20036;-71
2022/03/29 07:02:36;;;;;;;0.20;0.20;;;10.90;96.10;;;;;;5023582;28;20490;-72
2022/03/29 07:05:02;;;;;;;0.10;0.10;;;10.90;96.00;;;;;;5020823;28;20048;-69
2022/03/29 07:07:28;;;;;;;0.10;0.10;;;11.00;95.70;;;;;;5020919;28;20030;-71
2022/03/29 07:12:53;;;;;;;11.20;5.18;;;11.10;95.50;;;;;;5021724;28;20041;-72
2022/03/29 07:15:19;;;;;;;0.25;0.25;;;11.20;95.30;;;;;;5024212;28;20104;-70
2022/03/29 07:17:45;;;;;;;0.10;0.10;;;11.10;95.30;;;;;;5022680;28;20033;-70
2022/03/29 07:20:12;;;;;;;0.10;0.10;;;11.30;95.60;;;;;;5019339;28;20033;-68
2022/03/29 07:22:38;;;;;;;0.20;0.20;;;11.30;95.10;;;;;;5022303;28;20042;-69
2022/03/29 07:25:05;;;;;;;0.40;0.40;;;11.30;95.00;;;;;;5022631;28;20048;-71
2022/03/29 07:27:30;;;;;;;0.20;0.20;;;11.40;95.10;;;;;;5021805;28;20056;-70
2022/03/29 07:29:57;;;;;;;0.17;0.17;;;11.30;95.00;;;;;;5020893;28;20030;-70
2022/03/29 07:32:23;;;;;;;0.43;0.43;;;11.70;94.70;;;;;;5029426;28;20017;-70
2022/03/29 07:34:49;;;;;;;0.10;0.10;;;11.80;94.00;;;;;;5030900;28;20382;-70
2022/03/29 07:37:14;;;;;;;0.17;0.17;;;11.90;93.80;;;;;;5022644;28;20057;-69
2022/03/29 07:39:41;;;;;;;0.10;0.10;;;11.90;93.00;;;;;;5023257;28;20036;-69
2022/03/29 07:42:07;;;;;;;0.10;0.10;;;11.70;93.00;;;;;;5014791;28;20034;-69
2022/03/29 07:44:33;;;;;;;0.25;0.25;;;11.80;93.30;;;;;;5022192;28;20175;-69
2022/03/29 07:47:00;;;;;;;0.10;0.10;;;11.90;93.30;;;;;;5024659;28;20045;-70
2022/03/29 07:49:27;;;;;;;0.10;0.10;;;11.90;93.10;;;;;;5022142;28;20040;-71
2022/03/29 07:51:53;;;;;;;0.10;0.10;;;12.10;92.90;;;;;;5025243;28;20080;-69
2022/03/29 07:54:18;;;;;;;0.25;0.25;;;12.20;92.40;;;;;;5027398;28;20029;-69
2022/03/29 07:56:44;;;;;;;0.10;0.10;;;12.20;92.10;;;;;;5025498;28;20029;-69
2022/03/29 07:59:10;;;;;;;0.10;0.10;;;12.30;92.70;;;;;;5027555;28;20104;-69
2022/03/29 08:01:36;;;;;;;0.10;0.10;;;12.40;91.60;;;;;;5018165;28;20139;-68
2022/03/29 08:04:03;;;;;;;1.95;1.85;;;12.50;91.10;;;;;;5023318;28;20037;-69
2022/03/29 08:06:28;;;;;;;0.10;0.10;;;12.40;91.00;;;;;;5020056;28;20075;-71
2022/03/29 08:08:54;;;;;;;0.10;0.10;;;12.50;91.00;;;;;;5029808;28;20438;-71
2022/03/29 08:11:22;;;;;;;0.40;0.40;;;12.40;90.70;;;;;;5030956;28;20072;-71
2022/03/29 08:13:48;;;;;;;0.13;0.13;;;12.50;90.40;;;;;;5025133;28;20080;-70
2022/03/29 08:16:15;;;;;;;0.43;0.43;;;12.60;89.90;;;;;;5022644;28;20025;-71
2022/03/29 08:18:40;;;;;;;0.77;0.77;;;12.60;89.50;;;;;;5028241;28;20517;-69
2022/03/29 08:21:47;;;;;;;0.20;0.20;;;12.70;88.80;;;;;;5031055;28;20029;-71
2022/03/29 08:23:53;;;;;;;0.30;0.30;;;12.70;88.80;;;;;;5021238;28;20038;-70
2022/03/29 08:26:19;;;;;;;0.65;0.57;;;12.70;87.60;;;;;;5026735;28;20026;-71
2022/03/29 08:28:45;;;;;;;0.10;0.10;;;12.80;87.60;;;;;;5024586;28;20036;-70
2022/03/29 08:31:11;;;;;;;0.10;0.10;;;13.00;87.30;;;;;;5030795;28;20482;-71
2022/03/29 08:33:37;;;;;;;0.10;0.10;;;13.10;87.00;;;;;;5021190;28;20073;-70
2022/03/29 08:36:03;;;;;;;0.22;0.22;;;13.10;85.70;;;;;;5021265;28;20391;-71
2022/03/29 08:38:29;;;;;;;0.10;0.10;;;13.20;86.10;;;;;;5019908;28;20505;-70
2022/03/29 08:40:57;;;;;;;0.85;0.85;;;13.40;85.10;;;;;;5023332;28;20026;-70
2022/03/29 08:43:29;;;;;;;6.03;2.72;;;13.60;84.40;;;;;;5020448;28;20021;-70
2022/03/29 08:45:55;;;;;;;0.17;0.17;;;13.80;83.50;;;;;;5017232;28;20022;-71
2022/03/29 08:48:25;;;;;;;1.33;1.27;;;13.90;82.40;;;;;;5022918;28;20025;-71
2022/03/29 08:50:53;;;;;;;0.10;0.10;;;13.80;81.60;;;;;;5036910;28;20403;-71
2022/03/29 08:53:22;;;;;;;1.02;1.02;;;13.70;80.90;;;;;;5022059;28;20025;-71
2022/03/29 08:55:48;;;;;;;0.13;0.13;;;13.80;81.80;;;;;;5020425;28;20104;-70
2022/03/29 08:58:17;;;;;;;2.30;2.10;;;13.90;80.70;;;;;;5023849;28;20112;-70
2022/03/29 09:00:48;;;;;;;0.35;0.35;;;14.00;80.60;;;;;;5021090;28;20080;-72
2022/03/29 09:03:15;;;;;;;0.10;0.10;;;14.00;79.50;;;;;;5028303;28;20515;-73
2022/03/29 09:05:41;;;;;;;0.10;0.10;;;14.20;79.70;;;;;;5026268;28;20040;-72
2022/03/29 09:08:13;;;;;;;0.40;0.40;;;14.30;77.70;;;;;;5028069;28;20025;-69
2022/03/29 09:10:50;;;;;;;1.35;0.95;;;14.40;77.40;;;;;;5020311;28;20061;-70
2022/03/29 09:13:27;;;;;;;0.20;0.20;;;14.60;77.40;;;;;;5021375;28;20052;-70
2022/03/29 09:15:55;;;;;;;0.10;0.10;;;14.70;77.00;;;;;;5026601;28;20099;-72
2022/03/29 09:18:22;;;;;;;1.60;1.50;;;14.90;76.10;;;;;;5028064;28;20506;-70
2022/03/29 09:21:09;;;;;;;0.22;0.22;;;15.00;75.10;;;;;;5019893;28;20261;-69
2022/03/29 09:23:36;;;;;;;0.10;0.10;;;14.70;75.00;;;;;;5017548;28;20032;-70
2022/03/29 09:26:03;;;;;;;0.10;0.10;;;14.70;75.60;;;;;;5019394;28;20147;-71
2022/03/29 09:28:37;;;;;;;0.10;0.10;;;14.80;75.20;;;;;;5019474;28;20060;-70
2022/03/29 09:31:20;;;;;;;0.52;0.52;;;14.90;74.70;;;;;;5026367;28;20501;-70
2022/03/29 09:33:46;;;;;;;0.20;0.20;;;15.10;73.80;;;;;;5019783;28;20093;-71
2022/03/29 09:36:13;;;;;;;0.10;0.10;;;15.60;72.60;;;;;;5026584;28;20453;-69
2022/03/29 09:38:47;;;;;;;0.10;0.10;;;15.60;71.60;;;;;;5018088;28;20132;-68
2022/03/29 09:41:28;;;;;;;1.17;1.15;;;15.90;71.10;;;;;;5027394;28;20029;-71
2022/03/29 09:44:03;;;;;;;0.10;0.10;;;16.00;69.50;;;;;;5014720;28;20466;-71
2022/03/29 09:46:30;;;;;;;0.10;0.10;;;16.20;69.40;;;;;;5025139;28;20030;-72
2022/03/29 09:49:00;;;;;;;0.10;0.10;;;16.20;68.00;;;;;;5015191;28;20034;-70
2022/03/29 09:51:27;;;;;;;1.40;1.35;;;16.20;67.30;;;;;;5021295;28;20021;-69
2022/03/29 09:53:57;;;;;;;0.10;0.10;;;16.30;66.40;;;;;;5018461;28;20025;-71
2022/03/29 09:56:29;;;;;;;0.28;0.28;;;16.10;64.50;;;;;;5017651;28;21309;-71
2022/03/29 09:59:15;;;;;;;1.27;1.15;;;16.10;65.40;;;;;;5024094;28;20106;-72
2022/03/29 10:01:52;;;;;;;1.58;1.48;;;16.30;64.00;;;;;;5025026;28;20041;-72
2022/03/29 10:04:19;;;;;;;2.70;1.67;;;16.40;63.50;;;;;;5022897;28;20040;-75
2022/03/29 10:06:47;;;;;;;0.10;0.10;;;16.50;62.40;;;;;;5018296;28;20038;-71
2022/03/29 10:09:28;;;;;;;0.10;0.10;;;16.60;61.80;;;;;;5026079;28;20029;-72
2022/03/29 10:12:22;;;;;;;0.57;0.57;;;16.70;61.40;;;;;;5022381;28;20061;-71
2022/03/29 10:14:50;;;;;;;1.30;1.20;;;16.80;61.10;;;;;;5013939;28;20044;-69
2022/03/29 10:17:16;;;;;;;0.10;0.10;;;17.00;61.60;;;;;;5027344;28;20052;-73
2022/03/29 10:19:44;;;;;;;0.10;0.10;;;17.00;60.90;;;;;;5016898;28;20548;-73
2022/03/29 10:22:13;;;;;;;0.10;0.10;;;17.10;60.40;;;;;;5015771;28;20550;-71
2022/03/29 10:24:39;;;;;;;0.10;0.10;;;16.90;59.30;;;;;;5013119;28;20030;-71
2022/03/29 10:27:05;;;;;;;0.10;0.10;;;17.00;59.40;;;;;;5019627;28;20029;-72
2022/03/29 10:29:32;;;;;;;0.10;0.10;;;17.40;59.60;;;;;;5026864;28;20553;-74
2022/03/29 10:32:05;;;;;;;0.28;0.28;;;17.70;58.40;;;;;;5022459;28;20029;-73
2022/03/29 10:34:37;;;;;;;0.55;0.55;;;17.90;58.10;;;;;;5022648;28;20132;-71
2022/03/29 10:37:16;;;;;;;0.00;0.00;;;18.00;59.30;;;;;;5019882;28;20034;-72
2022/03/29 10:40:02;;;;;;;0.73;0.73;;;18.30;57.30;;;;;;5022824;28;20451;-73
2022/03/29 10:42:39;;;;;;;0.35;0.35;;;18.30;56.90;;;;;;5024101;28;20017;-72
2022/03/29 10:45:24;;;;;;;0.22;0.22;;;18.20;56.90;;;;;;5020550;28;20030;-74
2022/03/29 10:48:06;;;;;;;0.00;0.00;;;18.00;56.40;;;;;;5022186;28;20125;-74
2022/03/29 10:50:53;;;;;;;0.10;0.10;;;18.10;57.60;;;;;;5021575;28;20028;-75
2022/03/29 10:53:26;;;;;;;0.05;0.05;;;18.10;56.10;;;;;;5017110;28;20034;-73
2022/03/29 10:56:27;;;;;;;0.03;0.03;;;18.20;55.90;;;;;;5019924;28;20129;-73
2022/03/29 10:59:02;;;;;;;0.10;0.10;;;18.10;55.80;;;;;;4978418;28;20041;-73
2022/03/29 11:01:29;;;;;;;0.00;0.00;;;17.90;55.60;;;;;;5011025;28;20041;-72
2022/03/29 11:04:23;;;;;;;0.03;0.03;;;17.90;55.80;;;;;;5021234;28;20037;-72
2022/03/29 11:07:12;;;;;;;5.38;4.82;;;17.90;55.70;;;;;;5022584;28;20071;-75
2022/03/29 11:09:40;;;;;;;0.00;0.00;;;18.00;55.90;;;;;;5022262;28;20029;-72
2022/03/29 11:12:06;;;;;;;0.00;0.00;;;18.20;56.20;;;;;;5019969;28;20064;-73
2022/03/29 11:14:33;;;;;;;0.82;0.65;;;18.40;55.90;;;;;;5017714;28;20025;-73
2022/03/29 11:17:08;;;;;;;0.10;0.10;;;18.60;55.20;;;;;;5022124;28;20079;-74
2022/03/29 11:19:38;;;;;;;0.10;0.10;;;18.40;54.50;;;;;;5023259;28;20095;-75
2022/03/29 11:22:31;;;;;;;0.25;0.25;;;18.00;54.70;;;;;;5027425;28;20084;-74
2022/03/29 11:25:00;;;;;;;0.00;0.00;;;18.10;55.30;;;;;;5009998;28;20614;-76
2022/03/29 11:27:32;;;;;;;0.00;0.00;;;18.10;55.40;;;;;;5021691;28;20044;-73
2022/03/29 11:29:59;;;;;;;0.10;0.10;;;18.20;55.30;;;;;;5023775;28;20040;-74
2022/03/29 11:32:24;;;;;;;0.00;0.00;;;18.40;55.40;;;;;;5023330;28;20029;-74
2022/03/29 11:34:55;;;;;;;0.10;0.10;;;18.40;55.40;;;;;;5023758;28;20109;-75
2022/03/29 11:37:40;;;;;;;0.08;0.08;;;18.70;54.90;;;;;;5017130;28;20105;-76
2022/03/29 11:40:08;;;;;;;0.43;0.43;;;18.90;54.60;;;;;;5024477;28;20475;-74
2022/03/29 11:42:50;;;;;;;0.00;0.00;;;19.00;54.40;;;;;;5030255;28;20040;-78
2022/03/29 11:45:21;;;;;;;0.15;0.15;;;19.10;53.80;;;;;;5026643;28;20111;-68
2022/03/29 11:48:04;;;;;;;0.20;0.20;;;18.70;53.10;;;;;;5021698;28;20021;-66
2022/03/29 11:50:36;;;;;;;0.10;0.10;;;18.20;54.10;;;;;;5018204;28;21646;-69
2022/03/29 11:53:14;;;;;;;0.10;0.10;;;18.00;54.00;;;;;;5024912;28;20431;-69
2022/03/29 11:55:39;;;;;;;0.00;0.00;;;17.90;54.00;;;;;;5027091;28;20029;-65
2022/03/29 11:58:23;;;;;;;0.20;0.20;;;17.90;54.30;;;;;;5023592;28;20033;-66
2022/03/29 12:00:49;;;;;;;0.30;0.30;;;17.80;53.60;;;;;;5034143;28;20104;-67
2022/03/29 12:03:29;;;;;;;0.35;0.35;;;17.70;54.10;;;;;;5036199;22;20133;-70
2022/03/29 12:06:12;;;;;;;0.20;0.20;;;18.00;54.10;;;;;;4998940;28;20073;-68
2022/03/29 12:08:50;;;;;;;0.10;0.10;;;18.10;54.20;;;;;;5004332;28;20096;-68
2022/03/29 12:11:19;;;;;;;1.58;1.48;;;18.20;54.00;;;;;;5002925;28;20322;-68
2022/03/29 12:13:46;;;;;;;0.10;0.10;;;18.20;53.40;;;;;;4997334;28;20399;-67
2022/03/29 12:16:24;;;;;;;0.90;0.90;;;18.00;53.40;;;;;;5005099;28;20096;-72
2022/03/29 12:18:50;;;;;;;1.38;0.95;;;18.20;53.40;;;;;;5003439;28;20030;-71
2022/03/29 12:21:19;;;;;;;0.10;0.10;;;18.70;52.90;;;;;;5001566;28;20053;-68
2022/03/29 12:23:46;;;;;;;0.10;0.10;;;19.10;52.40;;;;;;4999238;28;20040;-71
2022/03/29 12:26:13;;;;;;;0.75;0.75;;;19.20;52.50;;;;;;5005457;28;20053;-70
2022/03/29 12:28:42;;;;;;;0.10;0.10;;;19.20;51.60;;;;;;5004090;28;20030;-69
2022/03/29 12:31:12;;;;;;;0.10;0.10;;;19.30;51.60;;;;;;5002896;28;20452;-68
2022/03/29 12:33:39;;;;;;;0.10;0.10;;;19.30;51.50;;;;;;5000531;28;20033;-70
2022/03/29 12:36:10;;;;;;;0.30;0.30;;;19.30;50.90;;;;;;4994800;28;20073;-70
2022/03/29 12:38:51;;;;;;;0.22;0.22;;;19.50;51.40;;;;;;4997225;28;20031;-70
2022/03/29 12:41:41;;;;;;;1.10;1.10;;;19.40;50.90;;;;;;5008347;28;20058;-71
2022/03/29 12:44:10;;;;;;;0.00;0.00;;;19.70;51.30;;;;;;5011651;28;21419;-69
2022/03/29 12:46:37;;;;;;;0.17;0.17;;;19.80;51.10;;;;;;5011361;28;20030;-72
2022/03/29 12:49:03;;;;;;;0.00;0.00;;;19.90;50.20;;;;;;5011268;28;20025;-68
2022/03/29 12:51:34;;;;;;;0.10;0.10;;;19.70;50.50;;;;;;5011817;28;20030;-70
2022/03/29 12:54:11;;;;;;;0.15;0.15;;;19.70;50.20;;;;;;5011249;28;20506;-69
2022/03/29 12:56:44;;;;;;;0.00;0.00;;;19.70;50.60;;;;;;5010189;28;20038;-69
2022/03/29 12:59:35;;;;;;;0.22;0.22;;;19.80;50.00;;;;;;5005422;28;20034;-69
2022/03/29 13:02:22;;;;;;;1.85;1.75;;;19.50;49.80;;;;;;5003460;28;20030;-70
2022/03/29 13:04:52;;;;;;;0.40;0.40;;;19.60;50.60;;;;;;5007051;28;20034;-70
2022/03/29 13:07:41;;;;;;;0.40;0.40;;;19.40;49.80;;;;;;5003183;28;20030;-70